createdAt,value
2022-07-27T00:01:11.918Z,167.18841
2022-07-27T00:06:13.170Z,167.18841
2022-07-27T00:11:14.110Z,167.18841
2022-07-27T00:16:15.134Z,167.18841
2022-07-27T00:21:16.083Z,168.0
2022-07-27T00:26:17.064Z,168.0
2022-07-27T00:31:18.139Z,168.0
2022-07-27T00:36:19.110Z,168.0
2022-07-27T00:41:20.049Z,168.81752
2022-07-27T00:46:21.186Z,169.64103
2022-07-27T00:51:22.227Z,169.64103
2022-07-27T00:56:23.339Z,169.64103
2022-07-27T01:01:24.289Z,169.64103
2022-07-27T01:06:27.343Z,170.47059
2022-07-27T01:11:28.413Z,169.64103
2022-07-27T01:16:29.366Z,169.64103
2022-07-27T01:21:34.091Z,169.64103
2022-07-27T01:26:35.170Z,169.64103
2022-07-27T01:31:36.239Z,169.64103
2022-07-27T01:36:37.344Z,169.64103
2022-07-27T01:41:38.265Z,169.64103
2022-07-27T01:46:39.312Z,169.64103
2022-07-27T01:51:40.277Z,169.64103
2022-07-27T01:56:41.248Z,169.64103
2022-07-27T02:01:42.857Z,169.64103
2022-07-27T02:06:43.845Z,169.64103
2022-07-27T02:11:44.747Z,169.64103
2022-07-27T02:16:45.749Z,169.64103
2022-07-27T02:21:46.917Z,169.64103
2022-07-27T02:26:49.558Z,169.64103
2022-07-27T02:31:50.602Z,169.64103
2022-07-27T02:36:51.522Z,169.64103
2022-07-27T02:41:52.435Z,169.64103
2022-07-27T02:46:53.333Z,169.64103
2022-07-27T02:51:54.372Z,169.64103
2022-07-27T02:56:55.339Z,169.64103
2022-07-27T03:01:56.514Z,170.47059
2022-07-27T03:06:57.583Z,170.47059
2022-07-27T03:11:58.528Z,170.47059
2022-07-27T03:16:59.479Z,170.47059
2022-07-27T03:22:00.424Z,170.47059
2022-07-27T03:27:11.297Z,170.47059
2022-07-27T03:32:12.273Z,171.30627
2022-07-27T03:37:13.307Z,171.30627
2022-07-27T03:42:14.340Z,172.99628
2022-07-27T03:47:15.413Z,172.14815
2022-07-27T03:52:18.008Z,172.14815
2022-07-27T03:57:19.043Z,172.14815
2022-07-27T04:02:20.056Z,172.99628
2022-07-27T04:07:21.007Z,171.30627
2022-07-27T04:12:21.904Z,170.47059
2022-07-27T04:17:53.653Z,169.64103
2022-07-27T04:22:57.674Z,169.64103
2022-07-27T04:27:58.594Z,169.64103
2022-07-27T04:32:59.565Z,168.81752
2022-07-27T04:38:00.466Z,168.81752
2022-07-27T04:43:01.408Z,168.0
2022-07-27T04:48:02.407Z,168.0
2022-07-27T04:53:03.346Z,168.0
2022-07-27T04:58:09.436Z,167.18841
2022-07-27T05:03:10.457Z,167.18841
2022-07-27T05:08:12.576Z,166.38267
2022-07-27T05:13:13.668Z,167.18841
2022-07-27T05:18:14.705Z,167.18841
2022-07-27T05:23:15.610Z,169.64103
2022-07-27T05:28:16.629Z,168.81752
2022-07-27T05:33:17.626Z,169.64103
2022-07-27T05:38:18.610Z,169.64103
2022-07-27T05:43:19.527Z,168.81752
2022-07-27T05:48:20.447Z,168.0
2022-07-27T05:53:21.395Z,167.18841
2022-07-27T05:58:23.226Z,167.18841
2022-07-27T06:03:25.949Z,167.18841
2022-07-27T06:08:26.968Z,166.38267
2022-07-27T06:13:28.539Z,166.38267
2022-07-27T06:18:29.531Z,167.18841
2022-07-27T06:23:30.457Z,166.38267
2022-07-27T06:28:31.401Z,167.18841
2022-07-27T06:33:32.777Z,166.38267
2022-07-27T06:38:33.711Z,168.81752
2022-07-27T06:43:35.777Z,169.64103
2022-07-27T06:48:37.197Z,171.30627
2022-07-27T06:53:43.211Z,169.64103
2022-07-27T06:58:44.169Z,168.0
2022-07-27T07:03:45.232Z,167.18841
2022-07-27T07:08:46.173Z,172.14815
2022-07-27T07:13:47.123Z,172.99628
2022-07-27T07:18:52.313Z,170.47059
2022-07-27T07:23:53.771Z,169.64103
2022-07-27T07:28:54.661Z,170.47059
2022-07-27T07:33:55.797Z,168.0
2022-07-27T07:38:56.750Z,175.57895
2022-07-27T07:43:57.939Z,170.47059
2022-07-27T07:48:58.917Z,173.85075
2022-07-27T07:54:00.182Z,171.30627
2022-07-27T07:59:01.185Z,172.14815
2022-07-27T08:04:02.359Z,172.14815
2022-07-27T08:09:03.278Z,172.14815
2022-07-27T08:14:04.439Z,170.47059
2022-07-27T08:19:05.390Z,167.18841
2022-07-27T08:24:06.412Z,172.14815
2022-07-27T08:29:11.380Z,172.14815
2022-07-27T08:34:14.857Z,172.14815
2022-07-27T08:39:41.717Z,171.30627
2022-07-27T08:45:07.174Z,168.81752
2022-07-27T08:50:08.117Z,168.0
2022-07-27T08:55:09.158Z,165.58273
2022-07-27T09:00:10.075Z,164.0
2022-07-27T09:05:11.045Z,162.43972
2022-07-27T09:15:12.458Z,167.18841
2022-07-27T09:20:18.014Z,169.64103
2022-07-27T09:25:38.425Z,167.18841
2022-07-27T09:30:53.668Z,172.14815
2022-07-27T09:40:55.145Z,169.64103
2022-07-27T09:45:56.426Z,168.0
2022-07-27T09:51:02.140Z,172.14815
2022-07-27T09:56:04.341Z,165.58273
2022-07-27T10:01:05.260Z,165.58273
2022-07-27T10:06:06.200Z,167.18841
2022-07-27T10:11:07.345Z,167.18841
2022-07-27T10:16:08.366Z,167.18841
2022-07-27T10:21:09.376Z,165.58273
2022-07-27T10:26:10.356Z,164.78853
2022-07-27T10:31:11.304Z,161.66784
2022-07-27T10:36:16.443Z,163.21708
2022-07-27T10:41:17.868Z,167.18841
2022-07-27T10:46:18.828Z,168.0
2022-07-27T10:51:20.073Z,163.21708
2022-07-27T10:56:26.095Z,164.0
2022-07-27T11:01:27.116Z,164.78853
2022-07-27T11:06:33.422Z,161.66784
2022-07-27T11:11:38.888Z,163.21708
2022-07-27T11:16:54.154Z,165.58273
2022-07-27T11:21:57.896Z,168.81752
2022-07-27T11:26:58.913Z,166.38267
2022-07-27T11:32:00.129Z,164.78853
2022-07-27T11:37:01.228Z,168.0
2022-07-27T11:42:08.689Z,168.0
2022-07-27T11:47:13.173Z,168.81752
2022-07-27T11:52:14.088Z,170.47059
2022-07-27T11:57:15.036Z,168.0
2022-07-27T12:02:16.035Z,165.58273
2022-07-27T12:07:17.338Z,168.81752
2022-07-27T12:12:18.772Z,170.47059
2022-07-27T12:17:19.923Z,168.0
2022-07-27T12:27:21.529Z,170.47059
2022-07-27T12:32:22.431Z,164.0
2022-07-27T12:37:23.325Z,164.78853
2022-07-27T12:42:24.292Z,163.21708
2022-07-27T12:47:27.825Z,161.66784
2022-07-27T12:52:29.128Z,159.38462
2022-07-27T12:57:54.102Z,163.21708
2022-07-27T13:02:56.709Z,161.66784
2022-07-27T13:07:57.637Z,163.21708
2022-07-27T13:12:58.587Z,168.0
2022-07-27T13:17:59.500Z,164.0
2022-07-27T13:23:00.442Z,160.14035
2022-07-27T13:28:01.410Z,160.14035
2022-07-27T13:33:02.336Z,160.90141
2022-07-27T13:38:03.241Z,160.90141
2022-07-27T13:43:09.295Z,158.63415
2022-07-27T13:48:13.372Z,161.66784
2022-07-27T13:53:15.310Z,154.9589
2022-07-27T13:58:16.671Z,160.14035
2022-07-27T14:03:17.592Z,157.88889
2022-07-27T14:08:20.345Z,160.90141
2022-07-27T14:13:21.300Z,162.43972
2022-07-27T14:18:22.600Z,165.58273
2022-07-27T14:23:23.544Z,160.14035
2022-07-27T14:28:24.505Z,167.18841
2022-07-27T14:33:26.100Z,160.90141
2022-07-27T14:38:34.331Z,162.43972
2022-07-27T14:43:35.290Z,160.90141
2022-07-27T14:49:04.715Z,159.38462
2022-07-27T14:54:06.969Z,160.90141
2022-07-27T14:59:07.914Z,164.0
2022-07-27T15:04:08.845Z,161.66784
2022-07-27T15:09:09.965Z,161.66784
2022-07-27T15:14:11.063Z,163.21708
2022-07-27T15:19:12.402Z,160.14035
2022-07-27T15:24:13.546Z,157.14879
2022-07-27T15:29:15.644Z,154.9589
2022-07-27T15:39:17.413Z,155.68385
2022-07-27T15:44:18.368Z,156.41379
2022-07-27T15:49:19.724Z,159.38462
2022-07-27T15:54:20.929Z,159.38462
2022-07-27T15:59:21.869Z,160.90141
2022-07-27T16:04:22.945Z,160.90141
2022-07-27T16:09:23.868Z,160.90141
2022-07-27T16:14:24.845Z,167.18841
2022-07-27T16:19:25.783Z,161.66784
2022-07-27T16:24:26.783Z,163.21708
2022-07-27T16:29:27.699Z,160.90141
2022-07-27T16:34:28.660Z,160.14035
2022-07-27T16:39:29.584Z,160.90141
2022-07-27T16:44:30.535Z,160.14035
2022-07-27T16:49:33.508Z,164.78853
2022-07-27T16:54:39.764Z,164.0
2022-07-27T16:59:40.905Z,162.43972
2022-07-27T17:04:41.927Z,168.0
2022-07-27T17:09:42.922Z,164.78853
2022-07-27T17:14:43.854Z,167.18841
2022-07-27T17:19:44.847Z,164.0
2022-07-27T17:29:47.140Z,166.38267
2022-07-27T17:34:48.143Z,166.38267
2022-07-27T17:39:49.090Z,164.0
2022-07-27T17:44:50.047Z,162.43972
2022-07-27T17:49:51.080Z,161.66784
2022-07-27T17:54:57.085Z,160.90141
2022-07-27T17:59:58.121Z,161.66784
2022-07-27T18:04:59.064Z,160.14035
2022-07-27T18:10:00.191Z,160.14035
2022-07-27T18:15:01.160Z,159.38462
2022-07-27T18:20:02.108Z,157.88889
2022-07-27T18:26:04.935Z,158.63415
2022-07-27T18:31:05.984Z,158.63415
2022-07-27T18:36:07.673Z,158.63415
2022-07-27T18:41:08.958Z,158.63415
2022-07-27T18:46:10.011Z,159.38462
2022-07-27T18:51:11.059Z,159.38462
2022-07-27T18:56:17.186Z,160.14035
2022-07-27T19:01:19.044Z,160.90141
2022-07-27T19:06:20.172Z,160.90141
2022-07-27T19:11:22.644Z,160.90141
2022-07-27T19:16:23.891Z,160.90141
2022-07-27T19:21:24.904Z,161.66784
2022-07-27T19:26:25.893Z,162.43972
2022-07-27T19:31:26.844Z,163.21708
2022-07-27T19:36:27.773Z,162.43972
2022-07-27T19:41:28.704Z,162.43972
2022-07-27T19:46:29.786Z,163.21708
2022-07-27T19:51:30.851Z,163.21708
2022-07-27T19:56:37.050Z,164.0
2022-07-27T20:01:38.426Z,163.21708
2022-07-27T20:06:39.442Z,163.21708
2022-07-27T20:11:40.370Z,164.0
2022-07-27T20:16:41.351Z,164.0
2022-07-27T20:21:42.780Z,164.0
2022-07-27T20:26:48.628Z,164.0
2022-07-27T20:31:50.104Z,164.0
2022-07-27T20:36:53.515Z,164.0
2022-07-27T20:41:54.444Z,164.0
2022-07-27T20:46:55.388Z,164.78853
2022-07-27T20:51:56.307Z,164.0
2022-07-27T20:56:57.474Z,164.0
2022-07-27T21:01:58.434Z,164.0
2022-07-27T21:07:00.022Z,164.0
2022-07-27T21:12:01.034Z,164.0
2022-07-27T21:17:02.427Z,164.78853
2022-07-27T21:22:03.404Z,164.78853
2022-07-27T21:27:04.947Z,165.58273
2022-07-27T21:32:05.977Z,165.58273
2022-07-27T21:37:06.882Z,165.58273
2022-07-27T21:42:07.870Z,165.58273
2022-07-27T21:47:13.764Z,165.58273
2022-07-27T21:52:15.641Z,166.38267
2022-07-27T21:57:16.582Z,166.38267
2022-07-27T22:02:17.478Z,165.58273
2022-07-27T22:07:19.327Z,165.58273
2022-07-27T22:12:20.606Z,166.38267
2022-07-27T22:17:21.528Z,166.38267
2022-07-27T22:22:22.448Z,166.38267
2022-07-27T22:27:23.518Z,166.38267
2022-07-27T22:32:24.567Z,166.38267
2022-07-27T22:42:25.980Z,166.38267
2022-07-27T22:47:26.991Z,167.18841
2022-07-27T22:52:27.912Z,167.18841
2022-07-27T22:57:28.843Z,167.18841
2022-07-27T23:02:29.753Z,167.18841
2022-07-27T23:07:33.251Z,167.18841
2022-07-27T23:12:34.637Z,166.38267
2022-07-27T23:17:35.593Z,167.18841
2022-07-27T23:22:41.659Z,166.38267
2022-07-27T23:27:42.976Z,166.38267
2022-07-27T23:32:43.903Z,166.38267
2022-07-27T23:37:44.802Z,166.38267
2022-07-27T23:42:45.798Z,167.18841
2022-07-27T23:47:46.712Z,167.18841
2022-07-27T23:52:48.310Z,167.18841
